createdAt,value
2018-09-17T00:00:50.845Z,83.60
2018-09-17T00:03:22.048Z,84.00
2018-09-17T00:05:53.247Z,84.30
2018-09-17T00:08:24.667Z,84.30
2018-09-17T00:10:55.881Z,84.30
2018-09-17T00:13:27.079Z,84.20
2018-09-17T00:15:58.303Z,84.30
2018-09-17T00:18:29.518Z,83.90
2018-09-17T00:21:00.787Z,84.20
2018-09-17T00:23:31.945Z,84.20
2018-09-17T00:26:03.164Z,84.10
2018-09-17T00:28:34.367Z,84.20
2018-09-17T00:31:05.581Z,84.10
2018-09-17T00:33:36.809Z,83.90
2018-09-17T00:36:08.018Z,84.30
2018-09-17T00:38:39.242Z,84.50
2018-09-17T00:41:10.468Z,84.60
2018-09-17T00:43:41.689Z,84.40
2018-09-17T00:46:12.893Z,84.50
2018-09-17T00:48:44.094Z,84.70
2018-09-17T00:51:15.969Z,84.40
2018-09-17T00:53:47.179Z,83.50
2018-09-17T00:56:18.384Z,83.40
2018-09-17T00:58:49.611Z,84.10
2018-09-17T01:01:20.857Z,84.50
2018-09-17T01:03:52.071Z,84.60
2018-09-17T01:06:23.308Z,85.20
2018-09-17T01:08:54.519Z,85.50
2018-09-17T01:11:25.732Z,85.20
2018-09-17T01:13:56.972Z,85.30
2018-09-17T01:16:28.189Z,85.10
2018-09-17T01:18:59.446Z,85.00
2018-09-17T01:21:30.657Z,85.30
2018-09-17T01:24:01.867Z,85.70
2018-09-17T01:26:33.091Z,85.70
2018-09-17T01:29:04.296Z,85.90
2018-09-17T01:31:35.623Z,85.70
2018-09-17T01:34:06.826Z,86.00
2018-09-17T01:36:38.034Z,86.10
2018-09-17T01:39:10.466Z,85.60
2018-09-17T01:41:41.699Z,85.80
2018-09-17T01:44:12.955Z,86.20
2018-09-17T01:46:44.193Z,86.00
2018-09-17T01:49:15.390Z,85.70
2018-09-17T01:51:46.615Z,85.30
2018-09-17T01:54:17.825Z,85.10
2018-09-17T01:56:49.029Z,85.00
2018-09-17T01:59:20.229Z,85.20
2018-09-17T02:01:51.433Z,85.30
2018-09-17T02:04:22.642Z,85.30
2018-09-17T02:06:53.880Z,85.70
2018-09-17T02:09:25.110Z,86.20
2018-09-17T02:11:56.328Z,86.20
2018-09-17T02:14:27.539Z,86.40
2018-09-17T02:16:58.749Z,86.40
2018-09-17T02:19:30.084Z,86.90
2018-09-17T02:22:01.327Z,87.00
2018-09-17T02:24:32.577Z,86.80
2018-09-17T02:27:03.823Z,86.70
2018-09-17T02:29:35.074Z,86.40
2018-09-17T02:32:06.291Z,86.60
2018-09-17T02:34:37.499Z,86.80
2018-09-17T02:37:08.716Z,86.80
2018-09-17T02:39:39.947Z,86.90
2018-09-17T02:42:11.151Z,86.90
2018-09-17T02:44:42.357Z,86.50
2018-09-17T02:47:13.574Z,86.70
2018-09-17T02:49:44.805Z,87.10
2018-09-17T02:52:16.039Z,87.50
2018-09-17T02:54:47.240Z,87.70
2018-09-17T02:57:18.459Z,87.60
2018-09-17T02:59:49.680Z,88.20
2018-09-17T03:02:20.930Z,87.80
2018-09-17T03:04:52.211Z,88.10
2018-09-17T03:07:23.454Z,88.20
2018-09-17T03:09:54.654Z,88.20
2018-09-17T03:12:25.853Z,88.30
2018-09-17T03:14:57.054Z,88.80
2018-09-17T03:17:28.269Z,89.00
2018-09-17T03:19:59.490Z,89.10
2018-09-17T03:22:30.719Z,89.70
2018-09-17T03:25:01.924Z,89.30
2018-09-17T03:27:33.140Z,89.70
2018-09-17T03:30:04.451Z,90.60
2018-09-17T03:32:35.661Z,92.00
2018-09-17T03:35:06.898Z,94.60
2018-09-17T03:37:38.125Z,95.00
2018-09-17T03:40:09.339Z,95.30
2018-09-17T04:15:32.893Z,96.10
2018-09-17T04:18:04.111Z,94.20
2018-09-17T04:20:35.332Z,94.70
2018-09-17T04:23:06.537Z,95.60
2018-09-17T05:08:37.140Z,99.90
2018-09-17T05:11:08.374Z,96.00
2018-09-17T05:16:11.397Z,99.90
2018-09-17T05:31:21.254Z,99.90
2018-09-17T05:49:03.225Z,94.30
2018-09-17T05:51:34.693Z,92.20
2018-09-17T05:54:05.902Z,93.10
2018-09-17T05:56:37.149Z,93.80
2018-09-17T06:04:11.846Z,98.10
2018-09-17T06:06:43.121Z,97.10
2018-09-17T06:14:17.814Z,91.40
2018-09-17T06:19:20.755Z,99.00
2018-09-17T06:24:23.757Z,99.30
2018-09-17T06:26:54.961Z,95.20
2018-09-17T06:31:57.869Z,99.90
2018-09-17T06:34:29.105Z,96.60
2018-09-17T06:39:32.169Z,99.90
2018-09-17T06:44:35.138Z,99.90
2018-09-17T06:52:11.790Z,99.90
2018-09-17T06:57:14.723Z,99.90
2018-09-17T06:59:45.937Z,95.50
2018-09-17T07:02:17.158Z,96.90
2018-09-17T07:07:20.097Z,99.20
2018-09-17T07:09:51.373Z,94.40
2018-09-17T07:14:54.293Z,97.30
2018-09-17T07:17:25.498Z,92.20
2018-09-17T07:19:56.729Z,92.00
2018-09-17T07:22:27.944Z,91.70
2018-09-17T07:24:59.153Z,91.80
2018-09-17T07:27:30.369Z,91.80
2018-09-17T07:30:01.601Z,92.00
2018-09-17T07:32:32.806Z,92.00
2018-09-17T07:35:04.014Z,91.80
2018-09-17T07:37:35.237Z,91.60
2018-09-17T07:40:06.471Z,91.60
2018-09-17T07:42:37.702Z,91.00
2018-09-17T07:45:08.920Z,90.80
2018-09-17T07:47:40.221Z,90.60
2018-09-17T07:50:11.462Z,90.60
2018-09-17T08:02:49.543Z,90.50
2018-09-17T08:05:20.773Z,90.60
2018-09-17T08:07:51.984Z,84.60
2018-09-17T08:10:24.326Z,82.10
2018-09-17T08:12:55.534Z,80.90
2018-09-17T08:15:26.756Z,76.20
2018-09-17T08:17:57.975Z,76.60
2018-09-17T08:20:29.204Z,72.90
2018-09-17T08:23:00.433Z,70.30
2018-09-17T08:25:31.726Z,68.30
2018-09-17T08:28:02.904Z,67.00
2018-09-17T08:30:34.121Z,66.90
2018-09-17T08:33:05.341Z,66.00
2018-09-17T08:35:36.574Z,65.10
2018-09-17T08:38:07.842Z,65.30
2018-09-17T08:40:39.026Z,65.70
2018-09-17T08:43:10.252Z,64.40
2018-09-17T08:45:41.521Z,64.40
2018-09-17T08:48:12.682Z,63.90
2018-09-17T08:50:43.892Z,63.00
2018-09-17T08:53:15.112Z,62.60
2018-09-17T08:55:50.909Z,62.30
2018-09-17T08:58:25.118Z,62.20
2018-09-17T09:01:01.954Z,62.10
2018-09-17T09:03:38.197Z,62.00
2018-09-17T09:06:15.125Z,60.00
2018-09-17T09:08:46.414Z,59.80
2018-09-17T09:11:20.649Z,60.50
2018-09-17T09:13:55.738Z,59.50
2018-09-17T09:16:26.963Z,58.60
2018-09-17T09:18:58.217Z,59.30
2018-09-17T09:21:29.454Z,57.60
2018-09-17T09:24:00.737Z,57.80
2018-09-17T09:26:31.996Z,58.50
2018-09-17T09:29:03.230Z,62.40
2018-09-17T09:31:34.567Z,60.80
2018-09-17T09:34:05.803Z,60.90
2018-09-17T09:36:37.017Z,61.30
2018-09-17T09:39:09.132Z,62.50
2018-09-17T09:41:40.365Z,60.70
2018-09-17T09:44:11.636Z,59.60
2018-09-17T09:46:42.860Z,60.80
2018-09-17T09:49:14.085Z,60.80
2018-09-17T09:51:45.308Z,62.70
2018-09-17T09:54:16.558Z,62.90
2018-09-17T09:56:47.794Z,62.30
2018-09-17T09:59:19.006Z,62.70
2018-09-17T10:01:57.886Z,62.00
2018-09-17T10:04:29.131Z,61.50
2018-09-17T10:07:00.358Z,60.10
2018-09-17T10:09:37.298Z,59.80
2018-09-17T10:12:14.277Z,60.80
2018-09-17T10:14:51.185Z,60.20
2018-09-17T10:17:28.202Z,62.00
2018-09-17T10:19:59.428Z,61.70
2018-09-17T10:22:30.653Z,61.80
2018-09-17T10:25:01.850Z,61.00
2018-09-17T10:27:33.077Z,59.30
2018-09-17T10:30:04.366Z,60.50
2018-09-17T10:32:35.607Z,60.10
2018-09-17T10:35:06.812Z,60.50
2018-09-17T10:37:38.048Z,56.70
2018-09-17T10:40:09.347Z,56.10
2018-09-17T10:42:40.550Z,57.70
2018-09-17T10:45:11.798Z,56.00
2018-09-17T10:47:43.005Z,55.40
2018-09-17T10:50:14.238Z,55.40
2018-09-17T10:52:45.442Z,50.80
2018-09-17T10:55:16.647Z,50.80
2018-09-17T10:57:47.879Z,51.00
2018-09-17T11:00:20.326Z,48.10
2018-09-17T11:02:51.590Z,47.40
2018-09-17T11:05:22.820Z,45.00
2018-09-17T11:07:54.067Z,46.40
2018-09-17T11:10:25.374Z,47.30
2018-09-17T11:12:56.613Z,43.00
2018-09-17T11:15:32.419Z,42.10
2018-09-17T11:18:03.650Z,42.20
2018-09-17T11:20:34.869Z,42.60
2018-09-17T11:23:06.173Z,39.80
2018-09-17T11:25:37.397Z,43.10
2018-09-17T11:28:08.685Z,41.10
2018-09-17T11:30:39.885Z,44.50
2018-09-17T11:33:11.161Z,43.10
2018-09-17T11:35:42.413Z,41.60
2018-09-17T11:38:13.633Z,42.30
2018-09-17T11:40:44.842Z,43.50
2018-09-17T11:43:16.077Z,42.80
2018-09-17T11:45:47.303Z,42.20
2018-09-17T11:48:18.576Z,44.20
2018-09-17T11:50:49.758Z,43.40
2018-09-17T11:53:21.025Z,42.50
2018-09-17T11:55:52.353Z,44.10
2018-09-17T11:58:23.591Z,43.90
2018-09-17T12:01:00.394Z,43.50
2018-09-17T12:13:44.190Z,45.00
2018-09-17T12:16:15.413Z,45.10
2018-09-17T12:18:46.635Z,48.00
2018-09-17T12:21:17.900Z,43.70
2018-09-17T12:23:49.151Z,44.40
2018-09-17T12:26:20.367Z,41.30
2018-09-17T12:28:51.585Z,41.40
2018-09-17T12:31:22.829Z,44.60
2018-09-17T12:33:54.111Z,47.30
2018-09-17T12:36:25.296Z,44.30
2018-09-17T12:38:56.515Z,45.40
2018-09-17T12:41:27.738Z,44.40
2018-09-17T12:43:58.957Z,41.70
2018-09-17T12:46:30.217Z,45.70
2018-09-17T12:49:01.437Z,45.70
2018-09-17T12:51:32.670Z,47.50
2018-09-17T12:54:03.930Z,46.80
2018-09-17T12:56:35.217Z,43.10
2018-09-17T12:59:06.459Z,43.90
2018-09-17T13:01:37.690Z,44.40
2018-09-17T13:04:08.909Z,45.90
2018-09-17T13:06:40.133Z,45.20
2018-09-17T13:09:11.646Z,44.00
2018-09-17T13:11:42.857Z,42.80
2018-09-17T13:14:14.125Z,43.20
2018-09-17T13:16:45.364Z,44.20
2018-09-17T13:19:16.612Z,44.60
2018-09-17T13:21:47.836Z,44.30
2018-09-17T13:24:19.070Z,42.60
2018-09-17T13:26:50.274Z,43.20
2018-09-17T13:29:21.584Z,44.40
2018-09-17T13:31:52.898Z,46.10
2018-09-17T13:34:24.047Z,44.70
2018-09-17T13:36:55.305Z,43.80
2018-09-17T13:39:26.581Z,46.30
2018-09-17T13:41:57.905Z,47.00
2018-09-17T13:44:29.171Z,48.10
2018-09-17T13:52:03.822Z,52.10
2018-09-17T13:54:35.065Z,44.10
2018-09-17T13:57:06.317Z,44.10
2018-09-17T13:59:37.539Z,42.00
2018-09-17T14:02:09.008Z,42.90
2018-09-17T14:04:40.265Z,43.60
2018-09-17T14:07:11.501Z,44.50
2018-09-17T14:09:42.764Z,42.70
2018-09-17T14:12:14.044Z,44.20
2018-09-17T14:14:45.297Z,44.80
2018-09-17T14:17:16.513Z,45.80
2018-09-17T14:19:47.776Z,46.50
2018-09-17T14:22:19.113Z,44.40
2018-09-17T14:24:50.321Z,48.10
2018-09-17T14:29:53.317Z,48.10
2018-09-17T14:32:30.287Z,48.10
2018-09-17T14:35:01.576Z,45.50
2018-09-17T14:37:32.797Z,46.10
2018-09-17T14:40:04.030Z,45.70
2018-09-17T14:42:35.246Z,47.70
2018-09-17T14:45:06.452Z,51.10
2018-09-17T14:47:37.690Z,49.30
2018-09-17T14:50:08.933Z,49.30
2018-09-17T14:52:40.141Z,50.80
2018-09-17T14:55:11.367Z,48.70
2018-09-17T14:57:42.574Z,50.90
2018-09-17T15:00:13.802Z,47.40
2018-09-17T15:02:45.065Z,44.90
2018-09-17T15:05:16.266Z,45.80
2018-09-17T15:07:47.528Z,45.00
2018-09-17T15:10:18.832Z,42.90
2018-09-17T15:12:50.061Z,45.20
2018-09-17T15:15:22.134Z,44.30
2018-09-17T15:17:53.339Z,47.70
2018-09-17T15:20:24.610Z,45.90
2018-09-17T15:22:55.769Z,45.90
2018-09-17T15:25:27.057Z,48.00
2018-09-17T15:27:58.310Z,48.30
2018-09-17T15:30:29.502Z,46.30
2018-09-17T15:45:39.418Z,51.40
2018-09-17T15:48:10.649Z,48.10
2018-09-17T15:50:41.886Z,46.50
2018-09-17T15:53:13.114Z,48.60
2018-09-17T15:55:44.347Z,50.60
2018-09-17T16:00:47.849Z,52.60
2018-09-17T16:03:19.053Z,42.60
2018-09-17T16:05:50.267Z,43.80
2018-09-17T16:08:21.485Z,45.40
2018-09-17T16:10:52.689Z,46.00
2018-09-17T16:13:23.921Z,56.00
2018-09-17T16:15:55.131Z,48.30
2018-09-17T16:43:43.521Z,67.40
2018-09-17T16:46:21.789Z,57.80
2018-09-17T16:48:52.990Z,59.60
2018-09-17T16:51:24.301Z,60.50
2018-09-17T17:06:34.358Z,68.70
2018-09-17T17:09:05.566Z,65.30
2018-09-17T17:11:36.777Z,62.80
2018-09-17T17:14:07.998Z,64.90
2018-09-17T17:16:39.329Z,64.50
2018-09-17T17:19:10.567Z,67.70
2018-09-17T17:21:41.799Z,66.20
2018-09-17T17:24:13.013Z,63.80
2018-09-17T17:26:44.254Z,65.10
2018-09-17T17:29:15.510Z,68.40
2018-09-17T17:31:46.725Z,68.90
2018-09-17T17:34:17.959Z,71.90
2018-09-17T17:36:49.181Z,68.10
2018-09-17T17:39:20.467Z,73.90
2018-09-17T17:41:51.673Z,72.50
2018-09-17T17:44:22.880Z,70.70
2018-09-17T17:46:54.162Z,70.30
2018-09-17T17:49:25.403Z,67.90
2018-09-17T17:51:56.705Z,60.40
2018-09-17T17:54:27.892Z,61.00
2018-09-17T17:56:59.080Z,64.10
2018-09-17T17:59:30.295Z,71.80
2018-09-17T18:02:01.536Z,66.60
2018-09-17T18:07:04.482Z,74.30
2018-09-17T18:09:35.693Z,72.20
2018-09-17T18:12:06.920Z,71.50
2018-09-17T18:14:38.166Z,65.00
2018-09-17T18:17:09.392Z,64.90
2018-09-17T18:19:40.638Z,65.40
2018-09-17T18:22:11.847Z,64.60
2018-09-17T18:24:43.067Z,65.40
2018-09-17T18:27:14.335Z,66.30
2018-09-17T18:29:45.493Z,68.20
2018-09-17T18:32:16.806Z,68.30
2018-09-17T18:34:48.015Z,68.70
2018-09-17T18:37:19.223Z,68.50
2018-09-17T18:39:50.449Z,69.20
2018-09-17T18:42:21.703Z,71.00
2018-09-17T18:44:52.939Z,75.20
2018-09-17T18:49:55.849Z,78.80
2018-09-17T18:52:27.053Z,70.20
2018-09-17T23:06:05.702Z,99.90
2018-09-17T23:08:43.825Z,76.80
2018-09-17T23:11:15.203Z,78.70
2018-09-17T23:13:46.506Z,80.00
2018-09-17T23:16:17.775Z,82.00
2018-09-17T23:18:49.389Z,81.90
2018-09-17T23:21:20.721Z,82.50
2018-09-17T23:23:52.028Z,83.40
2018-09-17T23:26:23.375Z,84.50
2018-09-17T23:28:54.729Z,85.40
2018-09-17T23:31:26.058Z,86.00
2018-09-17T23:33:57.329Z,86.00
2018-09-17T23:36:28.642Z,87.20
2018-09-17T23:38:59.963Z,86.90
2018-09-17T23:41:31.264Z,86.90
